This is the latest recevied weather packets stored in our database for station/object DL1EEM-L4. If no packets are shown the sender has not sent any weather packets the latest 10 day(s).
| Time | Temp. | Humidity | Pressure | Rain* | Wind** | Luminosity | Snow |
|---|---|---|---|---|---|---|---|
| 1777785350 | 16.11° C | 71% | 1009.3 hPa | - | - | - | - |
| 1777784449 | 15.56° C | 74% | 1009.2 hPa | - | - | - | - |
| 1777740362 | 25.56° C | 35% | 1012.4 hPa | - | - | - | - |
| 1777739462 | 26.11° C | 33% | 1012.4 hPa | - | - | - | - |
| 1777738562 | 26.67° C | 31% | 1012.4 hPa | - | - | - | - |
| 1777737661 | 27.22° C | 30% | 1012.5 hPa | - | - | - | - |
| 1777736761 | 26.67° C | 30% | 1012.4 hPa | - | - | - | - |
| 1777735861 | 27.78° C | 29% | 1012.4 hPa | - | - | - | - |
| 1777734961 | 27.78° C | 28% | 1012.5 hPa | - | - | - | - |
| 1777734061 | 28.33° C | 27% | 1012.5 hPa | - | - | - | - |
| 1777733161 | 29.44° C | 25% | 1012.7 hPa | - | - | - | - |
| 1777732261 | 28.89° C | 25% | 1012.8 hPa | - | - | - | - |
| 1777731361 | 29.44° C | 25% | 1013 hPa | - | - | - | - |
| 1777730461 | 28.89° C | 24% | 1013.1 hPa | - | - | - | - |
| 1777728650 | 30° C | 22% | 1013.2 hPa | - | - | - | - |
| 1777727780 | 30° C | 21% | 1013.2 hPa | - | - | - | - |
| 1777726841 | 30.56° C | 20% | 1013.3 hPa | - | - | - | - |
| 1777725941 | 28.89° C | 20% | 1013.4 hPa | - | - | - | - |
| 1777725041 | 27.78° C | 20% | 1013.8 hPa | - | - | - | - |
| 1777724140 | 27.78° C | 21% | 1013.9 hPa | - | - | - | - |
| 1777723240 | 26.67° C | 21% | 1014 hPa | - | - | - | - |
| 1777722340 | 27.22° C | 21% | 1014.2 hPa | - | - | - | - |
| 1777721440 | 27.78° C | 20% | 1014.3 hPa | - | - | - | - |
| 1777720540 | 31.11° C | 17% | 1014.5 hPa | - | - | - | - |
| 1777719640 | 29.44° C | 18% | 1014.6 hPa | - | - | - | - |
* Rain since midnight (hover to see other rain measurements)
** Current wind speed in m/s (hover to see current wind gust speed)